Time;durP1;ratioP1;P1;durP2;ratioP2;P2;SDS_P1;SDS_P2;PMS_P1;PMS_P2;Temp;Humidity;BMP_temperature;BMP_pressure;BME280_temperature;BME280_humidity;BME280_pressure;Samples;Min_cycle;Max_cycle;Signal;HPM_P1;HPM_P2
2024/01/27 00:04:21;;;;;;;6.72;2.45;;;;;;;17.55;49.74;103194.13;10409995;28;20029;-56
2024/01/27 00:09:21;;;;;;;4.67;1.53;;;;;;;17.56;50.48;103209.19;10418060;28;20028;-56
2024/01/27 00:14:21;;;;;;;5.17;1.90;;;;;;;17.50;49.81;103210.06;10450918;28;20321;-56
2024/01/27 00:19:22;;;;;;;5.20;2.30;;;;;;;17.52;49.50;103216.88;10450489;28;20264;-55
2024/01/27 00:24:22;;;;;;;4.97;1.97;;;;;;;17.48;50.73;103214.84;10450508;28;20029;-54
2024/01/27 00:29:22;;;;;;;4.47;1.93;;;;;;;17.54;50.76;103220.16;10449475;28;20278;-56
2024/01/27 00:34:23;;;;;;;2.65;1.38;;;;;;;17.54;49.67;103228.19;10437049;28;20271;-56
2024/01/27 00:39:23;;;;;;;4.67;2.53;;;;;;;17.60;49.66;103210.34;10408569;28;20029;-56
2024/01/27 00:44:23;;;;;;;6.03;1.92;;;;;;;17.63;49.51;103201.03;10436941;28;20286;-56
2024/01/27 00:49:24;;;;;;;3.65;1.63;;;;;;;17.64;50.48;103213.41;10449923;28;20032;-56
2024/01/27 00:54:25;;;;;;;4.35;2.25;;;;;;;17.64;49.78;103203.50;10450062;28;20353;-56
2024/01/27 00:59:25;;;;;;;8.32;1.90;;;;;;;17.58;49.54;103223.19;10449692;28;20025;-57
2024/01/27 01:04:26;;;;;;;3.60;1.50;;;;;;;17.58;49.83;103209.78;10449757;28;20395;-56
2024/01/27 01:09:26;;;;;;;5.20;1.50;;;;;;;17.55;50.26;103223.66;10436677;28;20322;-56
2024/01/27 01:14:26;;;;;;;5.13;1.60;;;;;;;17.55;50.68;103229.00;10449600;28;20056;-56
2024/01/27 01:19:26;;;;;;;3.10;1.27;;;;;;;17.53;49.40;103217.69;10449289;28;20290;-56
2024/01/27 01:24:27;;;;;;;3.30;1.60;;;;;;;17.55;49.38;103231.69;10449363;28;20287;-56
2024/01/27 01:29:27;;;;;;;5.83;2.87;;;;;;;17.57;50.14;103223.41;10449051;28;20083;-56
2024/01/27 01:34:28;;;;;;;4.17;1.90;;;;;;;17.58;48.81;103231.22;10436034;28;20271;-56
2024/01/27 01:39:29;;;;;;;5.20;1.83;;;;;;;17.59;49.36;103224.81;10409812;28;20283;-56
2024/01/27 01:44:30;;;;;;;3.50;1.70;;;;;;;17.58;49.38;103225.06;10415609;28;20026;-56
2024/01/27 01:49:31;;;;;;;5.05;2.25;;;;;;;17.58;49.25;103227.72;10415041;28;20025;-56
2024/01/27 01:54:32;;;;;;;4.70;2.30;;;;;;;17.57;50.36;103234.97;10414071;28;20021;-56
2024/01/27 01:59:32;;;;;;;3.53;1.60;;;;;;;17.56;50.33;103232.50;10414735;28;20040;-56
2024/01/27 02:04:44;;;;;;;3.77;1.60;;;;;;;17.58;48.90;103241.16;10414908;28;20068;-57
2024/01/27 02:09:44;;;;;;;3.50;1.30;;;;;;;17.54;50.22;103233.56;10426522;28;20375;-56
2024/01/27 02:14:44;;;;;;;2.73;1.57;;;;;;;17.58;48.70;103233.91;10414392;28;20053;-56
2024/01/27 02:19:44;;;;;;;4.60;1.83;;;;;;;17.56;49.14;103229.81;10414192;28;20278;-56
2024/01/27 02:24:46;;;;;;;3.87;1.93;;;;;;;17.59;49.13;103237.41;10413830;28;20018;-56
2024/01/27 02:29:46;;;;;;;5.43;2.17;;;;;;;17.55;49.58;103237.06;10413574;28;20674;-55
2024/01/27 02:34:47;;;;;;;3.57;2.00;;;;;;;17.58;49.41;103241.97;10414073;28;20056;-56
2024/01/27 02:39:47;;;;;;;3.80;1.57;;;;;;;17.58;49.94;103236.59;10413019;28;20279;-56
2024/01/27 02:44:47;;;;;;;5.55;1.98;;;;;;;17.52;49.45;103243.72;10413258;28;20298;-56
2024/01/27 02:49:48;;;;;;;3.93;1.77;;;;;;;17.55;49.30;103245.09;10412112;28;20052;-55
2024/01/27 02:54:48;;;;;;;4.10;1.60;;;;;;;17.56;48.55;103235.19;10424952;28;20280;-56
2024/01/27 02:59:49;;;;;;;3.47;1.80;;;;;;;17.56;48.51;103243.25;10412484;28;20279;-56
2024/01/27 03:04:49;;;;;;;4.63;1.65;;;;;;;17.54;49.55;103251.53;10412336;28;20904;-56
2024/01/27 03:09:50;;;;;;;4.57;1.43;;;;;;;17.53;49.66;103239.16;10424162;28;20055;-56
2024/01/27 03:14:50;;;;;;;3.08;1.33;;;;;;;17.62;48.27;103247.69;10411771;28;20296;-56
2024/01/27 03:19:51;;;;;;;3.30;1.45;;;;;;;17.61;49.12;103225.41;10410299;28;20025;-56
2024/01/27 03:24:53;;;;;;;3.03;1.17;;;;;;;17.60;48.27;103244.41;10411735;28;20026;-56
2024/01/27 03:29:53;;;;;;;3.60;1.58;;;;;;;17.57;49.68;103244.88;10415995;28;20286;-56
2024/01/27 03:34:53;;;;;;;4.17;1.70;;;;;;;17.57;49.30;103231.47;10431287;28;20021;-55
2024/01/27 03:39:54;;;;;;;2.97;1.33;;;;;;;17.57;48.95;103242.19;10410715;28;20029;-56
2024/01/27 03:44:54;;;;;;;5.43;1.60;;;;;;;17.54;49.76;103236.25;10423280;28;20295;-55
2024/01/27 03:49:54;;;;;;;3.90;1.48;;;;;;;17.56;48.61;103251.28;10419401;28;20031;-56
2024/01/27 03:54:55;;;;;;;3.40;1.45;;;;;;;17.54;48.31;103243.47;10415354;28;20041;-55
2024/01/27 03:59:55;;;;;;;3.80;1.50;;;;;;;17.56;48.37;103244.06;10410453;28;20029;-56
2024/01/27 04:04:55;;;;;;;4.50;1.97;;;;;;;17.60;48.36;103247.91;10409751;28;20295;-55
2024/01/27 04:09:56;;;;;;;4.03;1.43;;;;;;;17.66;48.35;103256.94;10422721;28;20280;-56
2024/01/27 04:14:57;;;;;;;4.13;1.70;;;;;;;17.64;48.14;103259.84;10409383;28;20315;-56
2024/01/27 04:19:58;;;;;;;4.30;1.42;;;;;;;17.64;48.91;103265.22;10410775;28;20319;-55
2024/01/27 04:24:58;;;;;;;3.63;1.50;;;;;;;17.62;48.70;103261.91;10437127;28;20116;-56
2024/01/27 04:29:58;;;;;;;3.50;1.67;;;;;;;17.66;49.11;103278.41;10452729;28;20271;-56
2024/01/27 04:34:59;;;;;;;3.25;1.45;;;;;;;17.65;48.63;103260.66;10428930;28;20048;-56
2024/01/27 04:39:59;;;;;;;3.73;1.50;;;;;;;17.61;47.92;103268.31;10409309;28;20048;-56
2024/01/27 04:45:00;;;;;;;4.15;1.80;;;;;;;17.61;47.48;103273.69;10408835;28;20694;-56
2024/01/27 04:50:00;;;;;;;2.90;1.40;;;;;;;17.62;48.77;103261.91;10409246;28;20298;-56
2024/01/27 04:55:01;;;;;;;4.03;1.50;;;;;;;17.60;48.40;103258.66;10413701;28;20025;-56
2024/01/27 05:00:01;;;;;;;4.13;1.88;;;;;;;17.63;48.02;103260.88;10424488;28;20370;-56
2024/01/27 05:05:02;;;;;;;5.88;1.80;;;;;;;17.64;47.68;103259.00;10424269;28;20027;-56
2024/01/27 05:10:03;;;;;;;3.35;1.40;;;;;;;17.63;48.57;103260.06;10424752;28;20036;-56
2024/01/27 05:15:04;;;;;;;5.63;2.13;;;;;;;17.63;47.65;103262.72;10418497;28;20037;-56
2024/01/27 05:20:07;;;;;;;2.70;1.60;;;;;;;17.60;48.78;103257.84;10432449;28;20022;-55
2024/01/27 05:25:07;;;;;;;3.28;1.58;;;;;;;17.61;47.46;103249.56;10431578;28;20654;-55
2024/01/27 05:30:08;;;;;;;3.00;1.95;;;;;;;17.59;48.29;103254.31;10430607;28;20102;-55
2024/01/27 05:35:10;;;;;;;2.85;1.20;;;;;;;17.62;48.50;103251.19;10432053;28;20029;-56
2024/01/27 05:40:10;;;;;;;2.58;1.10;;;;;;;17.61;48.28;103244.19;10415747;28;20029;-56
2024/01/27 05:45:11;;;;;;;4.90;1.92;;;;;;;17.63;47.55;103235.91;10426191;28;20471;-56
2024/01/27 05:50:11;;;;;;;7.88;2.00;;;;;;;17.60;49.02;103242.56;10443308;28;20587;-56
2024/01/27 05:55:12;;;;;;;4.47;1.67;;;;;;;17.60;48.13;103239.06;10426849;28;20021;-55
2024/01/27 06:00:13;;;;;;;3.13;1.40;;;;;;;17.62;47.42;103240.44;10430227;28;20075;-56
2024/01/27 06:05:13;;;;;;;3.15;1.60;;;;;;;17.57;48.60;103243.00;10428784;28;20048;-56
2024/01/27 06:10:14;;;;;;;5.10;2.20;;;;;;;17.62;47.89;103250.38;10429800;28;20112;-55
2024/01/27 06:15:15;;;;;;;4.80;2.30;;;;;;;17.58;47.54;103246.50;10431084;28;20886;-55
2024/01/27 06:20:18;;;;;;;3.08;1.55;;;;;;;17.61;47.87;103248.72;10420027;28;20750;-55
2024/01/27 06:25:20;;;;;;;6.40;2.35;;;;;;;17.73;48.87;103245.06;10422104;28;20226;-54
2024/01/27 06:30:20;;;;;;;5.43;2.00;;;;;;;17.72;48.27;103251.50;10429684;28;20112;-55
2024/01/27 06:35:21;;;;;;;5.53;2.60;;;;;;;17.79;48.49;103262.16;10435966;28;20029;-56
2024/01/27 06:40:21;;;;;;;11.20;2.30;;;;;;;17.82;48.50;103256.31;10451915;28;20033;-58
2024/01/27 06:45:21;;;;;;;8.30;3.35;;;;;;;17.82;48.73;103246.41;10451312;28;20353;-55
2024/01/27 06:50:22;;;;;;;9.43;3.37;;;;;;;17.76;50.67;103254.56;10442270;28;20087;-55
2024/01/27 06:55:23;;;;;;;11.85;3.42;;;;;;;17.61;48.57;103264.81;10425219;28;20378;-55
2024/01/27 07:00:23;;;;;;;7.85;2.60;;;;;;;17.52;49.77;103265.16;10436535;28;20493;-56
2024/01/27 07:05:24;;;;;;;12.05;2.85;;;;;;;17.47;49.91;103273.06;10430658;28;20037;-56
2024/01/27 07:10:24;;;;;;;6.88;2.30;;;;;;;17.47;48.52;103283.78;10430097;28;20434;-56
2024/01/27 07:15:24;;;;;;;9.17;2.67;;;;;;;17.45;49.41;103290.41;10425002;28;20100;-56
2024/01/27 07:20:24;;;;;;;8.32;2.88;;;;;;;17.44;48.17;103299.50;10444436;28;20294;-56
2024/01/27 07:25:25;;;;;;;8.20;2.30;;;;;;;17.43;48.74;103306.75;10452353;28;20036;-56
2024/01/27 07:30:25;;;;;;;6.50;2.83;;;;;;;17.44;48.53;103307.56;10459830;28;20721;-55
2024/01/27 07:35:25;;;;;;;4.77;2.20;;;;;;;17.52;48.73;103309.91;10421411;28;20283;-55
2024/01/27 07:40:26;;;;;;;6.03;2.30;;;;;;;17.51;47.78;103306.41;10410523;28;20282;-55
2024/01/27 07:45:26;;;;;;;6.17;2.63;;;;;;;17.53;47.88;103300.84;10410271;28;20375;-56
2024/01/27 07:50:26;;;;;;;5.43;2.70;;;;;;;17.55;47.31;103306.81;10441130;28;20311;-56
2024/01/27 07:55:27;;;;;;;4.40;2.20;;;;;;;17.57;48.59;103309.25;10450999;28;20665;-55
2024/01/27 08:00:27;;;;;;;6.17;2.23;;;;;;;17.56;47.69;103315.69;10450507;28;20325;-56
2024/01/27 08:05:27;;;;;;;7.78;2.80;;;;;;;17.59;47.34;103331.31;10449684;28;20283;-56
2024/01/27 08:10:28;;;;;;;9.37;2.53;;;;;;;17.62;47.42;103323.63;10449516;28;20074;-56
2024/01/27 08:15:28;;;;;;;5.90;2.70;;;;;;;17.60;47.97;103324.91;10450628;28;20302;-56
2024/01/27 08:20:28;;;;;;;7.83;3.13;;;;;;;17.47;48.70;103332.06;10445989;28;20056;-53
2024/01/27 08:25:28;;;;;;;8.70;3.47;;;;;;;17.51;47.99;103322.50;10408227;28;20296;-56
2024/01/27 08:30:30;;;;;;;6.17;3.07;;;;;;;17.54;48.31;103329.31;10424259;28;20348;-55
2024/01/27 08:35:30;;;;;;;7.18;3.33;;;;;;;17.49;48.67;103326.47;10420027;28;20268;-56
2024/01/27 08:40:30;;;;;;;5.60;2.30;;;;;;;17.45;47.71;103336.84;10409159;28;20025;-56
2024/01/27 08:45:31;;;;;;;6.73;3.40;;;;;;;17.48;48.20;103336.38;10408380;28;20744;-56
2024/01/27 08:50:32;;;;;;;6.90;2.63;;;;;;;17.52;48.40;103329.53;10419181;28;20294;-56
2024/01/27 08:55:32;;;;;;;5.47;2.90;;;;;;;17.49;48.64;103335.34;10416538;28;20065;-56
2024/01/27 09:00:32;;;;;;;6.70;3.93;;;;;;;17.53;49.46;103325.00;10432740;28;20036;-58
2024/01/27 09:05:33;;;;;;;7.03;3.00;;;;;;;17.47;49.88;103345.47;10396104;28;20310;-55
2024/01/27 09:10:33;;;;;;;7.23;2.90;;;;;;;17.45;49.13;103341.38;10422543;28;20286;-57
2024/01/27 09:15:33;;;;;;;6.47;3.13;;;;;;;17.49;48.79;103347.94;10428198;28;20286;-58
2024/01/27 09:20:33;;;;;;;5.67;3.13;;;;;;;17.44;49.13;103355.84;10448276;28;20025;-56
2024/01/27 09:25:34;;;;;;;7.57;3.67;;;;;;;17.27;50.10;103349.41;10412822;28;20291;-55
2024/01/27 09:30:34;;;;;;;8.93;3.55;;;;;;;17.27;49.47;103357.44;10423605;28;20277;-56
2024/01/27 09:35:35;;;;;;;10.32;4.70;;;;;;;17.28;49.33;103361.78;10416448;28;20049;-55
2024/01/27 09:40:35;;;;;;;6.50;3.40;;;;;;;17.23;49.91;103368.63;10406986;28;20014;-55
2024/01/27 09:45:35;;;;;;;8.10;3.67;;;;;;;17.14;49.26;103374.50;10406842;28;20837;-55
2024/01/27 09:50:36;;;;;;;10.27;4.00;;;;;;;17.08;49.02;103394.97;10405449;28;20315;-56
2024/01/27 09:55:36;;;;;;;8.20;3.80;;;;;;;17.04;49.64;103399.13;10406346;28;20052;-56
2024/01/27 10:00:37;;;;;;;7.15;3.67;;;;;;;17.01;49.65;103394.19;10409035;28;20056;-56
2024/01/27 10:05:37;;;;;;;7.35;3.55;;;;;;;17.00;50.66;103399.78;10413465;28;20021;-55
2024/01/27 10:10:38;;;;;;;5.72;3.63;;;;;;;16.99;49.88;103393.59;10424211;28;20044;-56
2024/01/27 10:15:39;;;;;;;13.48;3.10;;;;;;;16.98;50.81;103399.19;10413184;28;20017;-56
2024/01/27 10:20:39;;;;;;;5.72;3.25;;;;;;;16.94;50.85;103404.19;10413552;28;20029;-56
2024/01/27 10:25:40;;;;;;;5.57;2.78;;;;;;;16.90;52.17;103408.31;10412499;28;20036;-55
2024/01/27 10:30:41;;;;;;;4.80;3.15;;;;;;;16.88;51.19;103405.03;10431544;28;20505;-56
2024/01/27 10:35:43;;;;;;;5.15;2.85;;;;;;;16.87;50.92;103411.44;10418883;28;20048;-56
2024/01/27 10:40:43;;;;;;;8.20;3.20;;;;;;;16.87;52.44;103414.94;10412440;28;20035;-56
2024/01/27 10:45:44;;;;;;;7.73;2.80;;;;;;;16.86;51.94;103423.19;10411405;28;20396;-56
2024/01/27 10:50:46;;;;;;;7.95;3.30;;;;;;;16.89;52.16;103412.84;10412832;28;20279;-55
2024/01/27 10:55:47;;;;;;;7.00;3.80;;;;;;;16.87;52.00;103412.25;10410732;28;20391;-56
2024/01/27 11:00:48;;;;;;;12.10;3.83;;;;;;;16.90;50.40;103401.09;10430410;28;20040;-56
2024/01/27 11:05:49;;;;;;;9.20;3.33;;;;;;;16.91;52.07;103385.81;10432555;28;20074;-53
2024/01/27 11:10:49;;;;;;;13.57;4.10;;;;;;;16.94;51.77;103382.72;10419851;28;20045;-55
2024/01/27 11:15:53;;;;;;;19.77;4.32;;;;;;;17.01;51.75;103388.03;10410260;28;20025;-55
2024/01/27 11:20:54;;;;;;;8.35;3.85;;;;;;;17.03;51.13;103391.28;10411976;28;20033;-57
2024/01/27 11:26:05;;;;;;;11.77;4.00;;;;;;;17.10;51.22;103382.16;10410099;28;20021;-53
2024/01/27 11:31:07;;;;;;;11.98;4.22;;;;;;;17.19;50.83;103374.66;10436311;28;20078;-56
2024/01/27 11:36:07;;;;;;;17.33;5.75;;;;;;;17.03;51.79;103370.66;10412564;28;20033;-57
2024/01/27 11:41:08;;;;;;;12.68;4.47;;;;;;;17.07;51.93;103365.72;10427960;28;20033;-58
2024/01/27 11:46:08;;;;;;;19.87;4.37;;;;;;;17.06;52.79;103380.97;10426436;28;20110;-58
2024/01/27 11:51:11;;;;;;;13.13;4.97;;;;;;;17.19;51.29;103363.94;10437213;28;20333;-58
2024/01/27 11:56:12;;;;;;;11.00;4.13;;;;;;;17.37;51.21;103350.53;10414319;28;20029;-57
2024/01/27 12:01:12;;;;;;;15.30;4.03;;;;;;;17.20;52.90;103355.69;10426222;28;20025;-57
2024/01/27 12:06:13;;;;;;;13.25;3.80;;;;;;;17.18;53.45;103348.91;10424764;28;20075;-56
2024/01/27 12:11:14;;;;;;;14.38;4.07;;;;;;;17.14;53.01;103353.03;10393207;28;20045;-58
2024/01/27 12:16:15;;;;;;;13.05;3.92;;;;;;;17.13;53.81;103360.28;10430213;28;20472;-58
2024/01/27 12:21:19;;;;;;;19.45;5.25;;;;;;;17.13;52.83;103368.31;10428088;28;20033;-56
2024/01/27 12:26:21;;;;;;;16.17;4.63;;;;;;;17.14;52.38;103374.50;10409585;28;20025;-54
2024/01/27 12:31:23;;;;;;;12.95;3.78;;;;;;;17.14;52.45;103364.59;10433700;28;20103;-56
2024/01/27 12:36:23;;;;;;;14.43;3.70;;;;;;;17.15;52.87;103354.69;10409208;28;20056;-55
2024/01/27 12:41:28;;;;;;;19.87;4.70;;;;;;;17.14;53.25;103345.00;10415983;28;20056;-55
2024/01/27 12:46:28;;;;;;;13.00;5.03;;;;;;;17.19;53.87;103348.69;10436213;28;20363;-56
2024/01/27 12:51:28;;;;;;;19.65;4.78;;;;;;;17.23;52.76;103341.81;10429255;28;20711;-56
2024/01/27 12:56:29;;;;;;;13.20;3.70;;;;;;;17.16;53.92;103356.31;10418548;28;20029;-56
2024/01/27 13:01:29;;;;;;;17.67;5.20;;;;;;;17.23;53.63;103365.13;10428073;28;20619;-56
2024/01/27 13:06:30;;;;;;;15.83;4.33;;;;;;;17.12;54.01;103355.94;10408295;28;20033;-56
2024/01/27 13:11:30;;;;;;;15.65;4.45;;;;;;;17.07;53.12;103353.13;10417268;28;20296;-55
2024/01/27 13:16:30;;;;;;;17.30;4.25;;;;;;;17.10;53.79;103351.84;10409505;28;20029;-56
2024/01/27 13:21:30;;;;;;;15.10;3.60;;;;;;;17.01;53.71;103337.91;10434736;28;20030;-56
2024/01/27 13:26:32;;;;;;;16.53;4.73;;;;;;;16.98;53.35;103341.03;10439264;28;20319;-55
2024/01/27 13:31:33;;;;;;;15.00;5.13;;;;;;;16.95;53.85;103336.94;10410144;28;20767;-56
2024/01/27 13:36:33;;;;;;;15.70;4.30;;;;;;;16.90;52.41;103322.56;10420407;28;20067;-56
2024/01/27 13:41:34;;;;;;;15.30;4.05;;;;;;;16.85;52.52;103315.19;10432473;28;20024;-57
2024/01/27 13:46:34;;;;;;;9.40;3.88;;;;;;;16.80;53.62;103308.84;10443519;28;20427;-56
2024/01/27 13:51:35;;;;;;;13.00;3.90;;;;;;;16.78;53.88;103302.88;10436319;28;20024;-57
2024/01/27 13:56:35;;;;;;;9.57;4.38;;;;;;;16.73;52.60;103310.78;10455106;28;20281;-57
2024/01/27 14:01:35;;;;;;;12.20;3.80;;;;;;;16.72;52.96;103306.44;10451465;28;20025;-58
2024/01/27 14:06:37;;;;;;;9.83;3.83;;;;;;;16.69;52.28;103314.91;10455517;28;20796;-57
2024/01/27 14:11:37;;;;;;;9.45;3.58;;;;;;;16.66;53.63;103310.78;10447749;28;20299;-58
2024/01/27 14:16:38;;;;;;;9.25;2.85;;;;;;;16.60;53.48;103306.31;10442155;28;20036;-57
2024/01/27 14:21:38;;;;;;;12.85;2.90;;;;;;;16.61;53.34;103321.34;10444027;28;20029;-57
2024/01/27 14:26:39;;;;;;;9.45;3.35;;;;;;;16.57;53.24;103328.16;10452755;28;20043;-58
2024/01/27 14:31:39;;;;;;;6.63;3.50;;;;;;;16.54;52.56;103339.31;10426438;28;20060;-58
2024/01/27 14:36:40;;;;;;;10.70;3.20;;;;;;;16.53;53.99;103327.78;10449702;28;20029;-55
2024/01/27 14:41:40;;;;;;;7.00;2.90;;;;;;;16.54;53.12;103321.38;10447052;28;20759;-57
2024/01/27 14:46:41;;;;;;;9.87;2.90;;;;;;;16.53;54.24;103310.91;10445733;28;20017;-57
2024/01/27 14:51:41;;;;;;;19.17;3.88;;;;;;;16.58;53.78;103308.41;10452187;28;20974;-58
2024/01/27 14:56:42;;;;;;;8.40;3.33;;;;;;;16.59;53.58;103302.00;10439488;28;20345;-57
2024/01/27 15:01:42;;;;;;;11.70;2.97;;;;;;;16.59;53.60;103310.84;10439509;28;20033;-58
2024/01/27 15:06:42;;;;;;;7.93;3.17;;;;;;;16.62;53.41;103306.91;10445355;28;20084;-58
2024/01/27 15:11:43;;;;;;;5.90;2.22;;;;;;;16.64;52.30;103308.31;10445093;28;20045;-57
2024/01/27 15:16:44;;;;;;;7.53;3.20;;;;;;;16.63;52.87;103306.69;10446581;28;20450;-57
2024/01/27 15:21:45;;;;;;;7.30;2.63;;;;;;;16.67;52.66;103307.06;10437631;28;20555;-58
2024/01/27 15:26:46;;;;;;;8.60;3.17;;;;;;;16.69;51.73;103313.03;10443036;28;20032;-58
2024/01/27 15:31:46;;;;;;;6.70;3.03;;;;;;;16.71;52.57;103312.84;10439633;28;20029;-57
2024/01/27 15:36:46;;;;;;;17.20;3.27;;;;;;;16.70;52.52;103319.25;10430497;28;20739;-58
2024/01/27 15:41:47;;;;;;;13.75;4.10;;;;;;;16.74;51.43;103317.75;10412244;28;20299;-57
2024/01/27 15:46:47;;;;;;;16.87;4.57;;;;;;;16.80;52.56;103317.69;10421182;28;20575;-58
2024/01/27 15:51:47;;;;;;;35.03;8.40;;;;;;;16.92;52.50;103309.75;10410378;28;20272;-57
2024/01/27 15:56:48;;;;;;;28.27;6.10;;;;;;;16.95;51.98;103306.66;10411958;28;20621;-58
2024/01/27 16:01:48;;;;;;;30.30;7.00;;;;;;;16.92;52.75;103309.75;10409901;28;20284;-58
2024/01/27 16:06:48;;;;;;;29.03;5.47;;;;;;;16.86;52.56;103303.44;10410333;28;20033;-58
2024/01/27 16:11:49;;;;;;;19.70;5.73;;;;;;;16.83;53.58;103295.84;10422889;28;20284;-58
2024/01/27 16:16:49;;;;;;;22.17;5.77;;;;;;;16.79;53.79;103291.94;10409887;28;20287;-57
2024/01/27 16:21:49;;;;;;;22.67;6.77;;;;;;;16.80;52.89;103296.25;10417105;28;20048;-58
2024/01/27 16:26:50;;;;;;;30.90;7.80;;;;;;;16.78;54.33;103287.63;10421938;28;20287;-59
2024/01/27 16:31:50;;;;;;;29.33;7.78;;;;;;;16.78;53.10;103284.13;10432604;28;20306;-57
2024/01/27 16:36:50;;;;;;;24.03;5.80;;;;;;;16.76;53.92;103283.53;10447614;28;20017;-57
2024/01/27 16:41:51;;;;;;;33.90;9.07;;;;;;;16.75;53.57;103287.25;10448799;28;20303;-56
2024/01/27 16:46:51;;;;;;;28.40;8.67;;;;;;;16.83;53.11;103281.63;10448925;28;20024;-58
2024/01/27 16:51:52;;;;;;;31.87;10.67;;;;;;;16.84;54.07;103269.84;10424174;28;20271;-58
2024/01/27 16:56:53;;;;;;;28.45;9.13;;;;;;;17.04;54.17;103273.13;10423435;28;20279;-57
2024/01/27 17:01:54;;;;;;;16.85;7.60;;;;;;;17.22;52.40;103278.50;10420381;28;20027;-58
2024/01/27 17:06:54;;;;;;;25.42;9.20;;;;;;;17.63;53.01;103273.47;10427097;28;20027;-58
2024/01/27 17:11:54;;;;;;;21.33;7.33;;;;;;;17.74;53.92;103272.72;10424597;28;20095;-58
2024/01/27 17:16:54;;;;;;;24.20;8.17;;;;;;;17.58;54.21;103281.38;10416941;28;20813;-57
2024/01/27 17:21:55;;;;;;;23.07;7.47;;;;;;;17.63;54.33;103278.84;10416305;28;20302;-57
2024/01/27 17:26:55;;;;;;;20.13;6.68;;;;;;;17.56;54.50;103280.81;10416643;28;20280;-53
2024/01/27 17:31:56;;;;;;;25.90;7.25;;;;;;;17.47;55.29;103278.41;10455632;28;20037;-57
2024/01/27 17:36:56;;;;;;;25.65;8.70;;;;;;;17.60;53.96;103281.97;10416311;28;20033;-56
2024/01/27 17:41:56;;;;;;;18.83;6.85;;;;;;;17.62;54.51;103277.19;10415392;28;20033;-58
2024/01/27 17:46:57;;;;;;;20.63;7.20;;;;;;;17.48;54.29;103274.69;10429333;28;20025;-57
2024/01/27 17:51:57;;;;;;;27.83;7.40;;;;;;;17.43;54.32;103293.34;10428178;28;20276;-55
2024/01/27 17:56:57;;;;;;;19.00;6.53;;;;;;;17.30;53.89;103296.19;10441691;28;20271;-56
2024/01/27 18:01:58;;;;;;;23.33;7.30;;;;;;;17.14;55.04;103281.47;10433311;28;20014;-56
2024/01/27 18:06:59;;;;;;;25.73;8.83;;;;;;;17.07;55.67;103296.84;10425009;28;20283;-56
2024/01/27 18:12:01;;;;;;;18.77;7.18;;;;;;;17.00;55.17;103296.06;10432112;28;20288;-55
2024/01/27 18:17:01;;;;;;;21.42;7.78;;;;;;;16.95;56.27;103314.69;10403089;28;20041;-55
2024/01/27 18:22:05;;;;;;;17.10;7.07;;;;;;;16.93;55.82;103317.59;10435855;28;20022;-55
2024/01/27 18:27:05;;;;;;;20.48;7.00;;;;;;;16.90;55.44;103311.84;10427189;28;20040;-57
2024/01/27 18:32:05;;;;;;;19.13;7.22;;;;;;;16.85;56.54;103309.81;10438375;28;20025;-55
2024/01/27 18:37:06;;;;;;;19.92;7.05;;;;;;;16.84;56.49;103302.00;10433992;28;20037;-55
2024/01/27 18:42:06;;;;;;;22.93;6.60;;;;;;;16.79;55.59;103312.56;10413172;28;20038;-55
2024/01/27 18:47:07;;;;;;;19.40;6.38;;;;;;;16.75;55.44;103301.47;10413269;28;20275;-55
2024/01/27 18:52:07;;;;;;;17.17;6.35;;;;;;;16.73;54.60;103310.78;10412802;28;20029;-55
2024/01/27 18:57:09;;;;;;;18.73;6.30;;;;;;;16.71;54.88;103304.81;10420368;28;20025;-55
2024/01/27 19:02:10;;;;;;;17.45;5.80;;;;;;;16.75;54.33;103312.19;10440026;28;20283;-55
2024/01/27 19:07:10;;;;;;;12.73;5.18;;;;;;;16.84;52.76;103307.38;10440810;28;20032;-56
2024/01/27 19:12:10;;;;;;;15.60;5.85;;;;;;;16.80;53.42;103300.78;10418707;28;20063;-55
2024/01/27 19:17:13;;;;;;;16.08;7.57;;;;;;;16.84;52.55;103300.16;10414771;28;20559;-54
2024/01/27 19:22:14;;;;;;;14.57;5.28;;;;;;;16.87;53.63;103307.75;10428365;28;20017;-56
2024/01/27 19:27:14;;;;;;;15.30;6.45;;;;;;;16.98;53.11;103298.16;10427419;28;20029;-55
2024/01/27 19:32:15;;;;;;;14.10;4.80;;;;;;;17.03;52.22;103290.25;10433414;28;20044;-56
2024/01/27 19:37:15;;;;;;;14.93;6.00;;;;;;;17.05;52.53;103287.34;10439506;28;20828;-56
2024/01/27 19:42:15;;;;;;;10.87;5.13;;;;;;;17.13;53.29;103287.06;10452324;28;20291;-56
2024/01/27 19:47:15;;;;;;;9.17;5.03;;;;;;;17.16;52.69;103276.72;10451748;28;20630;-56
2024/01/27 19:52:16;;;;;;;14.30;7.20;;;;;;;17.14;52.95;103280.66;10452179;28;20271;-56
2024/01/27 19:57:17;;;;;;;12.95;6.68;;;;;;;17.11;52.45;103281.94;10451721;28;20281;-56
2024/01/27 20:02:17;;;;;;;10.70;5.60;;;;;;;17.15;52.20;103274.25;10435288;28;20025;-56
2024/01/27 20:07:19;;;;;;;11.07;5.37;;;;;;;17.14;52.96;103256.53;10413458;28;20650;-57
2024/01/27 20:12:19;;;;;;;11.82;6.20;;;;;;;17.14;53.01;103249.31;10436411;28;20310;-57
2024/01/27 20:17:20;;;;;;;16.70;6.40;;;;;;;17.15;52.84;103248.25;10422462;28;20032;-56
2024/01/27 20:22:20;;;;;;;14.20;6.22;;;;;;;17.14;53.33;103245.81;10450959;28;20354;-56
2024/01/27 20:27:20;;;;;;;18.80;7.35;;;;;;;17.05;52.63;103249.81;10429688;28;20028;-55
2024/01/27 20:32:21;;;;;;;12.77;5.70;;;;;;;17.10;51.89;103261.53;10433525;28;20148;-56
2024/01/27 20:37:21;;;;;;;8.70;5.75;;;;;;;17.15;52.86;103266.22;10425842;28;20510;-56
2024/01/27 20:42:22;;;;;;;9.68;5.75;;;;;;;17.16;51.93;103262.47;10430085;28;20038;-56
2024/01/27 20:47:22;;;;;;;12.60;6.23;;;;;;;17.14;52.16;103264.56;10422922;28;20041;-56
2024/01/27 20:52:22;;;;;;;7.70;5.30;;;;;;;17.14;52.55;103261.91;10429352;28;20275;-56
2024/01/27 20:57:23;;;;;;;10.57;5.60;;;;;;;17.14;51.90;103256.53;10419696;28;20329;-56
2024/01/27 21:02:24;;;;;;;10.52;5.45;;;;;;;17.12;52.85;103255.94;10428180;28;20021;-56
2024/01/27 21:07:25;;;;;;;10.93;5.97;;;;;;;17.14;52.61;103248.50;10426495;28;20054;-57
2024/01/27 21:12:25;;;;;;;11.38;5.20;;;;;;;17.14;52.88;103246.63;10427196;28;20404;-56
2024/01/27 21:17:25;;;;;;;12.05;5.60;;;;;;;17.08;51.37;103239.50;10416456;28;20029;-55
2024/01/27 21:22:26;;;;;;;11.23;4.87;;;;;;;17.04;51.25;103235.59;10426156;28;20037;-56
2024/01/27 21:27:26;;;;;;;15.57;5.47;;;;;;;17.09;52.60;103234.94;10410946;28;20288;-56
2024/01/27 21:32:26;;;;;;;10.30;5.40;;;;;;;17.07;52.11;103227.13;10434405;28;20037;-56
2024/01/27 21:37:27;;;;;;;7.97;5.55;;;;;;;17.09;52.21;103221.53;10413074;28;20291;-56
2024/01/27 21:42:27;;;;;;;9.98;4.53;;;;;;;17.07;52.41;103227.13;10419190;28;20036;-56
2024/01/27 21:47:28;;;;;;;10.00;5.57;;;;;;;17.10;51.48;103215.13;10439913;28;20092;-56
2024/01/27 21:52:28;;;;;;;8.17;5.20;;;;;;;17.08;50.89;103210.00;10407893;28;20022;-56
2024/01/27 21:57:29;;;;;;;9.63;4.87;;;;;;;17.11;52.01;103216.78;10410978;28;20283;-56
2024/01/27 22:02:29;;;;;;;9.75;4.82;;;;;;;17.10;51.71;103207.09;10415561;28;20295;-56
2024/01/27 22:07:29;;;;;;;7.40;4.40;;;;;;;17.13;50.98;103196.75;10419983;28;20495;-55
2024/01/27 22:12:30;;;;;;;8.17;5.07;;;;;;;17.15;50.76;103215.28;10421301;28;20341;-56
2024/01/27 22:17:30;;;;;;;10.47;5.00;;;;;;;17.17;50.90;103208.66;10414277;28;20962;-56
2024/01/27 22:22:30;;;;;;;8.60;5.73;;;;;;;17.23;49.97;103209.63;10414105;28;20284;-56
2024/01/27 22:27:32;;;;;;;11.23;5.72;;;;;;;17.27;50.40;103202.75;10413855;28;20292;-56
2024/01/27 22:32:33;;;;;;;10.15;4.63;;;;;;;17.31;49.47;103195.09;10441112;28;20024;-56
2024/01/27 22:37:33;;;;;;;12.75;5.45;;;;;;;17.35;49.95;103212.34;10413450;28;20087;-56
2024/01/27 22:42:34;;;;;;;9.38;4.47;;;;;;;17.31;50.55;103201.28;10413559;28;20021;-54
2024/01/27 22:47:34;;;;;;;9.27;4.27;;;;;;;17.33;49.48;103193.81;10413051;28;20428;-57
2024/01/27 22:52:34;;;;;;;6.55;4.20;;;;;;;17.32;49.59;103181.44;10411982;28;20276;-56
2024/01/27 22:57:36;;;;;;;9.40;5.15;;;;;;;17.32;48.70;103168.03;10412854;28;20024;-56